Burlington, IA (52601)

1:57 AM CDT on April 23, 2017 (GMT -0500)
Spirit Hollow Golf Course | | Change Station
Active Advisory: Flood Warning

Elev 646 ft 40.76 °N, 91.14 °W | Updated 8 seconds ago

Clear
Clear
42.6 °F
Feels Like 43 °F
N
1.9
Wind Variable Wind from West
Gusts 0.0 mph

Today
High -- | Low -- °F
--% Chance of Precip.
Yesterday
High -- | Low -- °F
Precip. -- in
Pressure 30.14 in
Visibility 10.0 miles
Clouds Clear
Windchill 43 °F
Dew Point 36 °F
Humidity 74%
Rainfall 0.00 in
Snow Depth Not available.
6:13 AM 7:52 PM
Waning Crescent, 14% visible
METAR KBRL 230653Z AUTO 00000KT 10SM CLR 06/03 A3014 RMK AO2 SLP207 T00560028
Pressure 30.14 in
Visibility 10.0 miles
Clouds Clear
Windchill 43 °F
Dew Point 36 °F
Humidity 74%
Rainfall 0.00 in
Snow Depth Not available.
6:13 AM 7:52 PM
Waning Crescent, 14% visible
METAR KBRL 230653Z AUTO 00000KT 10SM CLR 06/03 A3014 RMK AO2 SLP207 T00560028

Get Your Daily Forecast Email!

Thanks for signing up!

Be on the lookout for a verification email in your inbox.

You'll start receiving severe weather alerts in your inbox..

×

10-Day Weather Forecast

Almanac

Astronomy

Apr. 23, 2017 Rise Set
Actual Time
Civil Twilight
Nautical Twilight
Astronomical Twilight
Moon
Length of Visible Light
Length of Day
Tomorrow will be .
, % of the Moon is Illuminated

Today's Extremes

State Highs State Lows

Community

WunderPhotos

WunderBlog® & News

Nearby

Air Quality

  Air Quality AQ Index Pollutant
Not available.

Snow Depth

Station Depth Elevation

Earthquake Activity

City Distance Mag. Time & Date
Minimum magnitude displayed is 2.5.

Coastal Water Temperatures

Place Temperature

Stations

Nearby Weather Stations

Station Location Temp. Windchill Dew Point Humidity Wind Precip. Elev Updated Type
                   

Watches & Warnings

Flood Warning
Issued: 8:35 PM CDT Apr. 22, 2017 – National Weather Service

... Flood Warning remains in effect until further notice...

The Flood Warning continues for
the Mississippi River at Burlington.
* Until further notice.
* At 8:00 PM Saturday the stage was 15.2 feet... and steady.
* Flood stage is 15.0 feet.
* Minor flooding is occurring and is forecast to continue.
* Forecast... fall to 15.1 feet Sunday night, then rise to 15.3 feet
Wednesday.
* Impact... at 15.0 feet... agricultural flooding occurs.


Lat... Lon 4086 9110 4084 9105 4062 9108 4061 9142
     4067 9118




835 PM CDT Sat Apr 22 2017

... Flood Warning remains in effect until further notice...

The Flood Warning continues for
the Mississippi River at Gladstone ld18.
* Until further notice.
* At 8:00 PM Saturday the stage was 10.2 feet... and steady.
* Flood stage is 10.0 feet.
* Minor flooding is occurring and is forecast to continue.
* Forecast... remain nearly steady through the next seven days.



Lat... Lon 4094 9099 4091 9094 4084 9105 4086 9110